Time;durP1;ratioP1;P1;durP2;ratioP2;P2;SDS_P1;SDS_P2;PMS_P1;PMS_P2;Temp;Humidity;BMP_temperature;BMP_pressure;BME280_temperature;BME280_humidity;BME280_pressure;Samples;Min_cycle;Max_cycle;Signal;HPM_P1;HPM_P2
2023/09/21 00:02:19;;;;;;;4.20;1.92;;;;;;;;;;5063633;28;25069;-72
2023/09/21 00:04:45;;;;;;;5.75;1.83;;;;;;;;;;5067591;28;25074;-72
2023/09/21 00:07:11;;;;;;;3.35;1.58;;;;;;;;;;5065995;28;25074;-72
2023/09/21 00:09:38;;;;;;;4.22;1.88;;;;;;;;;;5049762;28;25069;-72
2023/09/21 00:12:04;;;;;;;7.97;1.85;;;;;;;;;;5068259;28;25062;-75
2023/09/21 00:14:30;;;;;;;3.83;2.05;;;;;;;;;;5056039;28;25365;-74
2023/09/21 00:16:56;;;;;;;4.35;1.73;;;;;;;;;;5063733;28;25117;-71
2023/09/21 00:19:23;;;;;;;4.35;2.60;;;;;;;;;;5068910;28;25126;-71
2023/09/21 00:21:49;;;;;;;4.93;1.95;;;;;;;;;;5068171;28;25083;-71
2023/09/21 00:24:22;;;;;;;4.30;2.10;;;;;;;;;;5071327;28;25069;-72
2023/09/21 00:26:50;;;;;;;5.13;2.42;;;;;;;;;;5066943;28;25082;-73
2023/09/21 00:29:16;;;;;;;3.60;1.80;;;;;;;;;;5067019;28;25130;-69
2023/09/21 00:31:42;;;;;;;3.53;1.80;;;;;;;;;;5070710;28;25158;-74
2023/09/21 00:34:08;;;;;;;5.63;1.50;;;;;;;;;;5066302;28;25051;-73
2023/09/21 00:36:35;;;;;;;3.67;2.10;;;;;;;;;;5070570;28;25071;-72
2023/09/21 00:39:02;;;;;;;3.60;1.80;;;;;;;;;;5061861;28;25072;-71
2023/09/21 00:41:31;;;;;;;5.22;2.35;;;;;;;;;;5069816;28;25067;-69
2023/09/21 00:43:58;;;;;;;8.93;3.00;;;;;;;;;;5066131;28;25130;-71
2023/09/21 00:46:27;;;;;;;4.93;2.00;;;;;;;;;;5065460;28;25062;-71
2023/09/21 00:48:53;;;;;;;5.68;1.80;;;;;;;;;;5067135;28;25069;-73
2023/09/21 00:51:19;;;;;;;11.20;2.22;;;;;;;;;;5067126;28;25102;-74
2023/09/21 00:53:46;;;;;;;6.47;2.10;;;;;;;;;;5069810;28;25075;-73
2023/09/21 00:56:14;;;;;;;6.28;2.00;;;;;;;;;;5067445;28;25057;-74
2023/09/21 00:58:44;;;;;;;4.25;1.92;;;;;;;;;;5063616;28;25070;-72
2023/09/21 01:01:18;;;;;;;3.38;1.63;;;;;;;;;;5067666;28;25054;-70
2023/09/21 01:03:44;;;;;;;4.15;2.00;;;;;;;;;;5064097;28;25052;-72
2023/09/21 01:06:11;;;;;;;4.70;2.03;;;;;;;;;;5067484;28;25081;-73
2023/09/21 01:08:37;;;;;;;2.55;1.60;;;;;;;;;;5045709;28;25064;-69
2023/09/21 01:11:09;;;;;;;2.90;1.63;;;;;;;;;;5065260;28;25132;-72
2023/09/21 01:13:35;;;;;;;5.53;1.95;;;;;;;;;;5063658;28;25066;-73
2023/09/21 01:16:06;;;;;;;3.45;2.10;;;;;;;;;;5068071;28;25080;-72
2023/09/21 01:18:32;;;;;;;2.83;1.50;;;;;;;;;;5062825;28;25051;-71
2023/09/21 01:21:00;;;;;;;7.70;2.65;;;;;;;;;;5064657;28;25057;-71
2023/09/21 01:23:43;;;;;;;3.38;2.10;;;;;;;;;;5077629;28;25058;-70
2023/09/21 01:26:10;;;;;;;4.22;1.63;;;;;;;;;;5065047;28;25051;-71
2023/09/21 01:28:37;;;;;;;6.72;1.77;;;;;;;;;;5066127;28;25106;-71
2023/09/21 01:31:03;;;;;;;3.00;2.42;;;;;;;;;;5069827;28;25061;-70
2023/09/21 01:33:29;;;;;;;4.63;2.13;;;;;;;;;;5052546;28;25093;-71
2023/09/21 01:35:55;;;;;;;10.13;2.40;;;;;;;;;;5068730;28;25074;-70
2023/09/21 01:38:25;;;;;;;4.22;1.80;;;;;;;;;;5065031;28;25120;-70
2023/09/21 01:40:51;;;;;;;5.78;2.03;;;;;;;;;;5064453;28;25056;-68
2023/09/21 01:43:17;;;;;;;1.95;1.58;;;;;;;;;;5070466;28;25067;-72
2023/09/21 01:45:47;;;;;;;5.30;1.85;;;;;;;;;;5070812;28;25059;-71
2023/09/21 01:48:14;;;;;;;8.27;2.00;;;;;;;;;;5061336;28;25062;-72
2023/09/21 01:50:46;;;;;;;3.30;1.60;;;;;;;;;;5067081;28;25076;-73
2023/09/21 01:53:12;;;;;;;3.33;2.13;;;;;;;;;;5055122;28;25230;-71
2023/09/21 01:55:39;;;;;;;4.75;2.05;;;;;;;;;;5075365;28;25070;-72
2023/09/21 01:58:06;;;;;;;3.13;1.90;;;;;;;;;;5078291;28;25056;-70
2023/09/21 02:00:39;;;;;;;5.22;2.03;;;;;;;;;;5061541;28;25160;-70
2023/09/21 02:03:06;;;;;;;5.53;1.65;;;;;;;;;;5073901;28;25063;-70
2023/09/21 02:05:33;;;;;;;5.47;1.63;;;;;;;;;;5064840;28;25066;-72
2023/09/21 02:08:00;;;;;;;3.20;2.20;;;;;;;;;;5045419;28;25067;-71
2023/09/21 02:10:26;;;;;;;2.13;1.90;;;;;;;;;;5064493;28;25066;-68
2023/09/21 02:12:56;;;;;;;2.97;1.83;;;;;;;;;;5069750;28;25081;-70
2023/09/21 02:15:23;;;;;;;4.30;1.75;;;;;;;;;;5057068;28;25078;-72
2023/09/21 02:17:49;;;;;;;4.35;1.88;;;;;;;;;;5046165;28;25048;-69
2023/09/21 02:20:16;;;;;;;5.35;2.03;;;;;;;;;;5064830;28;25070;-72
2023/09/21 02:22:46;;;;;;;2.55;1.70;;;;;;;;;;5063874;28;25136;-70
2023/09/21 02:25:12;;;;;;;4.78;2.28;;;;;;;;;;5065497;28;25073;-72
2023/09/21 02:27:40;;;;;;;4.07;2.13;;;;;;;;;;5063894;28;25105;-73
2023/09/21 02:30:13;;;;;;;6.07;1.90;;;;;;;;;;5072231;28;25056;-72
2023/09/21 02:32:42;;;;;;;4.60;1.88;;;;;;;;;;5068024;28;25121;-72
2023/09/21 02:35:15;;;;;;;6.63;2.35;;;;;;;;;;5051388;28;25183;-71
2023/09/21 02:37:45;;;;;;;2.50;2.05;;;;;;;;;;5053886;28;25135;-72
2023/09/21 02:40:14;;;;;;;2.83;1.73;;;;;;;;;;5067443;28;25059;-71
2023/09/21 02:42:41;;;;;;;4.85;1.88;;;;;;;;;;5069658;28;25053;-69
2023/09/21 02:45:10;;;;;;;3.72;2.08;;;;;;;;;;5063274;28;25057;-73
2023/09/21 02:47:36;;;;;;;4.38;1.98;;;;;;;;;;5052486;28;25061;-74
2023/09/21 02:50:14;;;;;;;3.75;1.98;;;;;;;;;;5070963;28;25101;-72
2023/09/21 02:52:43;;;;;;;3.05;1.85;;;;;;;;;;5050912;28;25057;-71
2023/09/21 02:55:09;;;;;;;3.08;1.45;;;;;;;;;;5048294;28;25177;-73
2023/09/21 02:57:36;;;;;;;2.70;1.85;;;;;;;;;;5061567;28;25083;-70
2023/09/21 03:00:11;;;;;;;3.15;2.25;;;;;;;;;;5065115;28;25049;-71
2023/09/21 03:02:36;;;;;;;5.53;2.10;;;;;;;;;;5065487;28;25056;-73
2023/09/21 03:05:03;;;;;;;4.10;1.83;;;;;;;;;;5066170;28;25058;-70
2023/09/21 03:07:29;;;;;;;3.10;1.90;;;;;;;;;;5066945;28;25080;-69
2023/09/21 03:09:55;;;;;;;4.35;2.13;;;;;;;;;;5064135;28;25066;-71
2023/09/21 03:12:22;;;;;;;5.38;2.17;;;;;;;;;;5069718;28;25149;-69
2023/09/21 03:14:48;;;;;;;7.38;2.25;;;;;;;;;;5064900;28;25066;-72
2023/09/21 03:17:14;;;;;;;3.80;1.67;;;;;;;;;;5060242;28;25183;-70
2023/09/21 03:19:40;;;;;;;3.38;1.80;;;;;;;;;;5045223;28;25058;-71
2023/09/21 03:22:06;;;;;;;5.32;1.80;;;;;;;;;;5065161;28;25074;-71
2023/09/21 03:24:33;;;;;;;8.30;1.90;;;;;;;;;;5065349;28;25101;-73
2023/09/21 03:26:59;;;;;;;6.35;2.03;;;;;;;;;;5066995;28;25044;-72
2023/09/21 03:29:25;;;;;;;3.03;2.13;;;;;;;;;;5067842;28;25054;-70
2023/09/21 03:31:55;;;;;;;3.15;2.00;;;;;;;;;;5067771;28;25066;-71
2023/09/21 03:34:21;;;;;;;5.82;2.20;;;;;;;;;;5063415;28;25074;-71
2023/09/21 03:36:47;;;;;;;4.40;2.33;;;;;;;;;;5064924;28;25056;-73
2023/09/21 03:39:17;;;;;;;3.97;1.50;;;;;;;;;;5049326;28;25076;-71
2023/09/21 03:41:45;;;;;;;6.55;2.25;;;;;;;;;;5070394;28;25042;-71
2023/09/21 03:44:11;;;;;;;7.90;2.03;;;;;;;;;;5047118;28;25084;-73
2023/09/21 03:46:38;;;;;;;2.55;1.73;;;;;;;;;;5062611;28;25168;-69
2023/09/21 03:49:04;;;;;;;3.67;2.17;;;;;;;;;;5066189;28;25052;-75
2023/09/21 03:51:31;;;;;;;3.10;1.90;;;;;;;;;;5051783;28;25058;-70
2023/09/21 03:53:59;;;;;;;3.17;2.13;;;;;;;;;;5067344;28;25050;-72
2023/09/21 03:56:26;;;;;;;5.38;1.92;;;;;;;;;;5046368;28;25083;-71
2023/09/21 03:58:52;;;;;;;7.43;2.15;;;;;;;;;;5050543;28;25078;-70
2023/09/21 04:01:21;;;;;;;4.43;2.15;;;;;;;;;;5066046;28;25073;-72
2023/09/21 04:03:53;;;;;;;5.13;2.30;;;;;;;;;;5065997;28;25062;-74
2023/09/21 04:06:19;;;;;;;3.58;2.00;;;;;;;;;;5069269;28;25156;-71
2023/09/21 04:08:45;;;;;;;6.97;2.10;;;;;;;;;;5065216;28;25068;-73
2023/09/21 04:11:12;;;;;;;5.00;1.88;;;;;;;;;;5060728;28;25091;-71
2023/09/21 04:13:37;;;;;;;3.72;1.95;;;;;;;;;;5059619;28;25071;-71
2023/09/21 04:16:05;;;;;;;10.65;2.33;;;;;;;;;;5045317;28;25061;-70
2023/09/21 04:18:31;;;;;;;3.08;2.45;;;;;;;;;;5070356;28;25464;-72
2023/09/21 04:20:57;;;;;;;8.15;2.58;;;;;;;;;;5067087;28;25068;-70
2023/09/21 04:23:24;;;;;;;5.38;2.78;;;;;;;;;;5067502;28;25070;-71
2023/09/21 04:25:50;;;;;;;3.97;2.30;;;;;;;;;;5048933;28;25073;-71
2023/09/21 04:28:16;;;;;;;5.32;2.60;;;;;;;;;;5064036;28;25066;-73
2023/09/21 04:30:42;;;;;;;4.18;2.33;;;;;;;;;;5063263;28;25082;-70
2023/09/21 04:33:09;;;;;;;4.43;2.17;;;;;;;;;;5051052;28;25044;-71
2023/09/21 04:35:36;;;;;;;3.42;2.00;;;;;;;;;;5056706;28;25055;-69
2023/09/21 04:38:03;;;;;;;3.25;1.98;;;;;;;;;;5049915;28;25143;-70
2023/09/21 04:40:30;;;;;;;4.05;2.67;;;;;;;;;;5064640;28;25079;-71
2023/09/21 04:42:56;;;;;;;5.82;2.28;;;;;;;;;;5069823;28;25069;-72
2023/09/21 04:45:22;;;;;;;4.75;2.10;;;;;;;;;;5065694;28;25073;-70
2023/09/21 04:47:49;;;;;;;5.30;2.17;;;;;;;;;;5065119;28;25168;-71
2023/09/21 04:50:19;;;;;;;3.33;2.25;;;;;;;;;;5059328;28;25078;-71
2023/09/21 04:52:48;;;;;;;3.88;2.30;;;;;;;;;;5058099;28;25071;-71
2023/09/21 04:55:16;;;;;;;3.33;2.03;;;;;;;;;;5068130;28;25062;-70
2023/09/21 04:57:42;;;;;;;3.33;2.58;;;;;;;;;;5073955;28;25179;-72
2023/09/21 05:00:10;;;;;;;7.65;2.85;;;;;;;;;;5062098;28;25134;-70
2023/09/21 05:02:36;;;;;;;3.88;2.47;;;;;;;;;;5078040;28;25068;-70
2023/09/21 05:05:02;;;;;;;4.05;2.13;;;;;;;;;;5032697;28;25070;-72
2023/09/21 05:07:29;;;;;;;3.90;2.47;;;;;;;;;;5056605;28;25126;-69
2023/09/21 05:09:55;;;;;;;4.10;2.35;;;;;;;;;;5050539;28;25091;-70
2023/09/21 05:12:21;;;;;;;6.88;2.88;;;;;;;;;;5053487;28;25066;-72
2023/09/21 05:14:47;;;;;;;4.93;2.45;;;;;;;;;;5061965;28;25135;-71
2023/09/21 05:17:17;;;;;;;3.35;2.35;;;;;;;;;;5055340;28;25064;-73
2023/09/21 05:19:46;;;;;;;4.20;2.72;;;;;;;;;;5063569;28;25077;-71
2023/09/21 05:22:12;;;;;;;5.78;2.40;;;;;;;;;;5056085;28;25061;-72
2023/09/21 05:24:39;;;;;;;5.45;2.60;;;;;;;;;;5040973;28;25071;-75
2023/09/21 05:27:09;;;;;;;4.43;2.70;;;;;;;;;;5060974;28;25055;-71
2023/09/21 05:29:37;;;;;;;5.82;2.97;;;;;;;;;;5063502;28;25137;-75
2023/09/21 05:32:05;;;;;;;4.80;2.63;;;;;;;;;;5063055;28;25059;-71
2023/09/21 05:34:32;;;;;;;4.15;3.22;;;;;;;;;;5045681;28;25162;-70
2023/09/21 05:36:58;;;;;;;3.47;2.60;;;;;;;;;;5039421;28;25151;-71
2023/09/21 05:39:24;;;;;;;6.38;3.33;;;;;;;;;;5044618;28;25078;-72
2023/09/21 05:41:51;;;;;;;5.30;3.08;;;;;;;;;;5057889;28;25136;-71
2023/09/21 05:44:25;;;;;;;6.32;3.78;;;;;;;;;;5054615;28;25116;-69
2023/09/21 05:46:51;;;;;;;4.88;2.78;;;;;;;;;;5033896;28;25078;-72
2023/09/21 05:49:22;;;;;;;7.72;3.70;;;;;;;;;;5041019;28;25071;-74
2023/09/21 05:51:49;;;;;;;4.13;2.75;;;;;;;;;;5067192;28;25068;-71
2023/09/21 05:54:16;;;;;;;5.57;2.95;;;;;;;;;;5066186;28;25052;-71
2023/09/21 05:56:43;;;;;;;4.70;3.40;;;;;;;;;;5060266;28;25067;-75
2023/09/21 05:59:09;;;;;;;6.38;3.35;;;;;;;;;;5066820;28;25056;-73
2023/09/21 06:01:35;;;;;;;5.85;3.22;;;;;;;;;;5054408;28;25063;-70
2023/09/21 06:04:02;;;;;;;6.68;3.17;;;;;;;;;;5042119;28;25077;-71
2023/09/21 06:06:31;;;;;;;6.60;3.90;;;;;;;;;;5064100;28;25190;-70
2023/09/21 06:08:57;;;;;;;4.50;2.70;;;;;;;;;;5068788;28;25068;-73
2023/09/21 06:11:25;;;;;;;2.28;1.55;;;;;;;;;;5058510;28;25084;-72
2023/09/21 06:13:53;;;;;;;2.08;1.48;;;;;;;;;;5063290;28;25056;-71
2023/09/21 06:16:20;;;;;;;1.52;0.90;;;;;;;;;;5059723;28;25136;-71
2023/09/21 06:18:48;;;;;;;2.40;1.20;;;;;;;;;;5062962;28;25070;-71
2023/09/21 06:21:14;;;;;;;3.63;1.35;;;;;;;;;;5060177;28;25094;-72
2023/09/21 06:23:42;;;;;;;3.60;0.93;;;;;;;;;;5064143;28;25076;-72
2023/09/21 06:26:08;;;;;;;1.83;1.10;;;;;;;;;;5048876;28;25057;-73
2023/09/21 06:28:34;;;;;;;1.15;1.05;;;;;;;;;;5062951;28;25092;-74
2023/09/21 06:31:04;;;;;;;2.08;1.20;;;;;;;;;;5061345;28;25082;-73
2023/09/21 06:33:32;;;;;;;2.90;0.98;;;;;;;;;;5064137;28;25162;-76
2023/09/21 06:35:58;;;;;;;3.20;1.05;;;;;;;;;;5049139;28;25197;-72
2023/09/21 06:38:24;;;;;;;1.38;0.93;;;;;;;;;;5062712;28;25066;-71
2023/09/21 06:40:50;;;;;;;1.00;0.80;;;;;;;;;;5063499;28;25140;-74
2023/09/21 06:43:16;;;;;;;2.25;0.93;;;;;;;;;;5061747;28;25063;-71
2023/09/21 06:45:42;;;;;;;1.50;1.20;;;;;;;;;;5059082;28;25278;-69
2023/09/21 06:48:11;;;;;;;1.42;1.00;;;;;;;;;;5042587;28;25056;-73
2023/09/21 06:50:40;;;;;;;1.95;1.33;;;;;;;;;;5066102;28;25063;-70
2023/09/21 06:53:06;;;;;;;4.18;1.30;;;;;;;;;;5062282;28;25064;-71
2023/09/21 06:55:34;;;;;;;3.10;1.00;;;;;;;;;;5081279;28;25072;-72
2023/09/21 06:57:59;;;;;;;2.78;1.02;;;;;;;;;;5081620;28;25041;-70
2023/09/21 07:00:25;;;;;;;3.50;1.08;;;;;;;;;;5086381;28;25088;-70
2023/09/21 07:02:52;;;;;;;1.95;1.20;;;;;;;;;;5087050;28;25064;-69
2023/09/21 07:05:19;;;;;;;3.47;1.23;;;;;;;;;;5048700;28;25085;-72
2023/09/21 07:07:46;;;;;;;3.08;1.40;;;;;;;;;;5043565;28;25073;-74
2023/09/21 07:10:12;;;;;;;1.20;1.10;;;;;;;;;;5057631;28;25058;-72
2023/09/21 07:12:39;;;;;;;6.50;1.48;;;;;;;;;;5053885;28;25076;-74
2023/09/21 07:15:07;;;;;;;3.15;1.40;;;;;;;;;;5034630;28;25082;-74
2023/09/21 07:17:34;;;;;;;5.30;1.55;;;;;;;;;;5049259;28;25066;-72
2023/09/21 07:20:00;;;;;;;7.60;1.55;;;;;;;;;;5056370;28;25081;-75
2023/09/21 07:22:27;;;;;;;1.50;1.20;;;;;;;;;;5059029;28;25076;-74
2023/09/21 07:24:53;;;;;;;6.32;1.75;;;;;;;;;;5066010;28;25085;-73
2023/09/21 07:27:19;;;;;;;2.67;1.58;;;;;;;;;;5068162;28;25067;-74
2023/09/21 07:29:45;;;;;;;5.35;1.88;;;;;;;;;;5050673;28;25082;-72
2023/09/21 07:32:11;;;;;;;4.60;1.92;;;;;;;;;;5067467;28;25061;-74
2023/09/21 07:34:37;;;;;;;4.53;2.10;;;;;;;;;;5062589;28;25071;-74
2023/09/21 07:37:04;;;;;;;8.50;2.20;;;;;;;;;;5050620;28;25072;-72
2023/09/21 07:39:30;;;;;;;2.45;1.70;;;;;;;;;;5050372;28;25091;-75
2023/09/21 07:41:56;;;;;;;5.35;1.75;;;;;;;;;;5070213;28;25067;-74
2023/09/21 07:44:26;;;;;;;2.53;1.58;;;;;;;;;;5068001;28;25076;-75
2023/09/21 07:46:52;;;;;;;5.22;1.90;;;;;;;;;;5062680;28;25069;-73
2023/09/21 07:49:18;;;;;;;5.28;1.52;;;;;;;;;;5060803;28;25067;-72
2023/09/21 07:51:44;;;;;;;4.32;1.30;;;;;;;;;;5070089;28;25077;-74
2023/09/21 07:54:11;;;;;;;4.65;1.63;;;;;;;;;;5063541;28;25059;-75
2023/09/21 07:56:37;;;;;;;6.95;2.10;;;;;;;;;;5067484;28;25062;-73
2023/09/21 07:59:09;;;;;;;5.22;1.70;;;;;;;;;;5062766;28;25151;-74
2023/09/21 08:01:35;;;;;;;7.88;2.17;;;;;;;;;;5072449;28;25110;-75
2023/09/21 08:04:01;;;;;;;4.95;1.67;;;;;;;;;;5064679;28;25151;-73
2023/09/21 08:06:28;;;;;;;2.70;1.60;;;;;;;;;;5066265;28;25062;-73
2023/09/21 08:08:54;;;;;;;3.00;1.77;;;;;;;;;;5069954;28;25070;-73
2023/09/21 08:11:21;;;;;;;5.80;1.83;;;;;;;;;;5062814;28;25060;-72
2023/09/21 08:13:47;;;;;;;4.55;1.63;;;;;;;;;;5062265;28;25076;-70
2023/09/21 08:16:13;;;;;;;5.78;1.73;;;;;;;;;;5056857;28;25182;-70
2023/09/21 08:18:39;;;;;;;3.60;1.77;;;;;;;;;;5060152;28;25061;-67
2023/09/21 08:21:08;;;;;;;3.17;1.65;;;;;;;;;;5054035;28;25066;-68
2023/09/21 08:23:34;;;;;;;4.90;1.20;;;;;;;;;;5065345;28;25061;-68
2023/09/21 08:26:00;;;;;;;5.30;1.67;;;;;;;;;;5054097;28;25151;-69
2023/09/21 08:28:26;;;;;;;3.55;1.83;;;;;;;;;;5063064;28;25076;-72
2023/09/21 08:30:56;;;;;;;5.55;2.10;;;;;;;;;;5040176;28;25063;-68
2023/09/21 08:33:23;;;;;;;4.30;1.58;;;;;;;;;;5044597;28;25071;-76
2023/09/21 08:35:49;;;;;;;4.10;1.90;;;;;;;;;;5054676;28;25132;-74
2023/09/21 08:38:17;;;;;;;3.63;1.48;;;;;;;;;;5060333;28;25064;-74
2023/09/21 08:40:46;;;;;;;3.28;1.60;;;;;;;;;;5061776;28;25062;-73
2023/09/21 08:43:17;;;;;;;3.63;1.98;;;;;;;;;;5061485;28;25063;-72
2023/09/21 08:45:44;;;;;;;5.25;1.58;;;;;;;;;;5062305;28;25064;-71
2023/09/21 08:48:15;;;;;;;4.60;1.60;;;;;;;;;;5067534;28;25065;-70
2023/09/21 08:50:41;;;;;;;3.10;1.67;;;;;;;;;;5055787;28;25139;-68
2023/09/21 08:53:11;;;;;;;3.88;1.42;;;;;;;;;;5045202;28;25071;-70
2023/09/21 08:55:38;;;;;;;5.47;1.75;;;;;;;;;;5060824;28;25105;-69
2023/09/21 08:58:05;;;;;;;3.75;1.48;;;;;;;;;;5058148;28;25054;-71
2023/09/21 09:00:32;;;;;;;7.10;2.08;;;;;;;;;;5046962;28;25066;-73
2023/09/21 09:02:58;;;;;;;4.50;1.70;;;;;;;;;;5045740;28;25062;-71
2023/09/21 09:05:24;;;;;;;3.28;1.30;;;;;;;;;;5054334;28;25153;-72
2023/09/21 09:07:51;;;;;;;5.15;1.50;;;;;;;;;;5067952;28;25074;-72
2023/09/21 09:10:18;;;;;;;4.15;1.80;;;;;;;;;;5064282;28;25161;-73
2023/09/21 09:12:44;;;;;;;4.22;1.70;;;;;;;;;;5036600;28;25057;-70
2023/09/21 09:15:10;;;;;;;5.03;1.73;;;;;;;;;;5062445;28;25070;-70
2023/09/21 09:17:37;;;;;;;3.25;1.20;;;;;;;;;;5058227;28;25092;-72
2023/09/21 09:20:05;;;;;;;2.33;1.30;;;;;;;;;;5060395;28;25132;-73
2023/09/21 09:22:33;;;;;;;4.95;1.40;;;;;;;;;;5062339;28;25068;-72
2023/09/21 09:25:06;;;;;;;5.40;1.70;;;;;;;;;;5061900;28;25067;-71
2023/09/21 09:27:35;;;;;;;5.63;1.73;;;;;;;;;;5062947;28;25057;-72
2023/09/21 09:30:03;;;;;;;4.60;1.70;;;;;;;;;;5070395;28;25118;-70
2023/09/21 09:32:41;;;;;;;5.80;1.42;;;;;;;;;;5064725;28;25067;-72
2023/09/21 09:35:13;;;;;;;4.97;1.40;;;;;;;;;;5063487;28;25097;-73
2023/09/21 09:37:43;;;;;;;3.28;1.45;;;;;;;;;;5069802;28;25055;-71
2023/09/21 09:40:10;;;;;;;3.33;1.20;;;;;;;;;;5064567;28;25059;-72
2023/09/21 09:42:40;;;;;;;4.25;1.60;;;;;;;;;;5068360;28;25082;-70
2023/09/21 09:45:10;;;;;;;2.88;1.20;;;;;;;;;;5063868;28;25085;-71
2023/09/21 09:47:37;;;;;;;4.47;1.73;;;;;;;;;;5043503;28;25065;-70
2023/09/21 09:50:04;;;;;;;3.30;1.45;;;;;;;;;;5056405;28;25073;-71
2023/09/21 09:52:31;;;;;;;5.50;2.17;;;;;;;;;;5064275;28;25061;-73
2023/09/21 09:54:59;;;;;;;3.58;1.50;;;;;;;;;;5055405;28;25058;-71
2023/09/21 09:57:26;;;;;;;3.00;1.80;;;;;;;;;;5063622;28;25124;-72
2023/09/21 09:59:53;;;;;;;4.13;1.83;;;;;;;;;;5059128;28;25150;-70
2023/09/21 10:02:20;;;;;;;11.70;3.03;;;;;;;;;;5062385;28;25062;-70
2023/09/21 10:04:47;;;;;;;3.92;1.70;;;;;;;;;;5058972;28;25134;-72
2023/09/21 10:07:16;;;;;;;6.00;1.70;;;;;;;;;;5063372;28;25104;-70
2023/09/21 10:09:43;;;;;;;6.30;2.13;;;;;;;;;;5058078;28;25071;-70
2023/09/21 10:12:12;;;;;;;4.55;1.70;;;;;;;;;;5061904;28;25158;-71
2023/09/21 10:14:49;;;;;;;2.40;1.40;;;;;;;;;;5043464;28;25071;-71
2023/09/21 10:17:23;;;;;;;4.07;1.90;;;;;;;;;;5060982;28;25149;-71
2023/09/21 10:19:49;;;;;;;3.42;1.52;;;;;;;;;;5060828;28;25081;-70
2023/09/21 10:22:26;;;;;;;2.92;1.23;;;;;;;;;;5044347;28;25147;-71
2023/09/21 10:24:58;;;;;;;6.53;1.80;;;;;;;;;;5053619;28;25062;-74
2023/09/21 10:27:27;;;;;;;2.28;1.38;;;;;;;;;;5058964;28;25075;-71
2023/09/21 10:29:54;;;;;;;3.28;1.60;;;;;;;;;;5042410;28;25156;-73
2023/09/21 10:32:23;;;;;;;1.25;1.15;;;;;;;;;;5060783;28;25144;-70
2023/09/21 10:34:50;;;;;;;5.15;1.60;;;;;;;;;;5045884;28;25077;-70
2023/09/21 10:37:29;;;;;;;1.83;1.15;;;;;;;;;;5038162;28;25081;-72
2023/09/21 10:39:58;;;;;;;2.28;1.13;;;;;;;;;;5064588;28;25091;-71
2023/09/21 10:42:29;;;;;;;2.20;1.00;;;;;;;;;;5048489;28;25145;-71
2023/09/21 10:45:07;;;;;;;2.40;1.38;;;;;;;;;;5046073;28;25187;-70
2023/09/21 10:47:33;;;;;;;2.55;1.52;;;;;;;;;;5062624;28;25070;-72
2023/09/21 10:49:59;;;;;;;4.07;1.05;;;;;;;;;;5044637;28;25064;-72
2023/09/21 10:52:27;;;;;;;3.33;1.50;;;;;;;;;;5065201;28;25064;-72
2023/09/21 10:54:53;;;;;;;5.18;1.52;;;;;;;;;;5064833;28;25174;-71
2023/09/21 10:57:29;;;;;;;4.93;1.75;;;;;;;;;;5068948;28;25060;-71
2023/09/21 10:59:57;;;;;;;2.88;1.38;;;;;;;;;;5067466;28;25134;-71
2023/09/21 11:02:23;;;;;;;2.72;1.85;;;;;;;;;;5060379;28;25070;-71
2023/09/21 11:04:52;;;;;;;4.85;2.25;;;;;;;;;;5069581;28;25102;-71
2023/09/21 11:07:19;;;;;;;2.65;1.80;;;;;;;;;;5075244;28;25064;-71
2023/09/21 11:09:45;;;;;;;3.67;2.00;;;;;;;;;;5075542;28;25113;-71
2023/09/21 11:12:14;;;;;;;6.32;2.47;;;;;;;;;;5073580;28;25080;-73
2023/09/21 11:14:44;;;;;;;4.03;2.30;;;;;;;;;;5072544;28;25082;-74
2023/09/21 11:17:13;;;;;;;4.30;1.95;;;;;;;;;;5074015;28;25107;-73
2023/09/21 11:19:40;;;;;;;2.97;1.70;;;;;;;;;;5082255;28;25114;-70
2023/09/21 11:22:07;;;;;;;5.82;2.17;;;;;;;;;;5080230;28;25079;-71
2023/09/21 11:24:36;;;;;;;6.97;2.33;;;;;;;;;;5082922;28;25138;-70
2023/09/21 11:27:09;;;;;;;3.85;1.63;;;;;;;;;;5072724;28;25082;-71
2023/09/21 11:29:35;;;;;;;3.50;1.58;;;;;;;;;;5076559;28;25169;-70
2023/09/21 11:32:01;;;;;;;1.35;1.25;;;;;;;;;;5080438;28;25064;-71
2023/09/21 11:34:29;;;;;;;2.38;1.55;;;;;;;;;;5077933;28;25080;-70
2023/09/21 11:36:56;;;;;;;2.30;1.33;;;;;;;;;;5074437;28;25149;-70
2023/09/21 11:39:28;;;;;;;1.60;1.50;;;;;;;;;;5072638;28;25058;-69
2023/09/21 11:41:55;;;;;;;1.75;1.30;;;;;;;;;;5057901;28;25104;-72
2023/09/21 11:44:26;;;;;;;2.90;1.38;;;;;;;;;;5072931;28;25122;-70
2023/09/21 11:46:52;;;;;;;2.10;1.60;;;;;;;;;;5067242;28;25067;-72
2023/09/21 11:49:18;;;;;;;1.63;1.20;;;;;;;;;;5072582;28;25084;-70
2023/09/21 11:51:45;;;;;;;2.63;1.80;;;;;;;;;;5070563;28;25108;-73
2023/09/21 11:54:11;;;;;;;2.58;1.70;;;;;;;;;;5048829;28;25088;-73
2023/09/21 11:56:38;;;;;;;1.63;1.38;;;;;;;;;;5070609;28;25054;-71
2023/09/21 11:59:06;;;;;;;3.42;1.73;;;;;;;;;;5056749;28;25048;-71
2023/09/21 12:01:35;;;;;;;2.05;1.55;;;;;;;;;;5070914;28;25068;-72
2023/09/21 12:04:03;;;;;;;2.75;1.80;;;;;;;;;;5074473;28;25073;-71
2023/09/21 12:06:32;;;;;;;2.65;1.60;;;;;;;;;;5070765;28;25064;-74
2023/09/21 12:08:58;;;;;;;2.10;1.90;;;;;;;;;;5064877;28;25064;-71
2023/09/21 12:11:24;;;;;;;5.00;1.45;;;;;;;;;;5066967;28;25053;-70
2023/09/21 12:13:50;;;;;;;1.67;1.50;;;;;;;;;;5066773;28;25067;-73
2023/09/21 12:16:16;;;;;;;4.43;1.88;;;;;;;;;;5069371;28;25061;-71
2023/09/21 12:18:43;;;;;;;1.50;1.40;;;;;;;;;;5067183;28;25052;-72
2023/09/21 12:21:09;;;;;;;1.50;1.40;;;;;;;;;;5057960;28;25068;-71
2023/09/21 12:23:36;;;;;;;1.83;1.13;;;;;;;;;;5059070;28;25001;-72
2023/09/21 12:26:02;;;;;;;1.45;1.17;;;;;;;;;;5063838;28;25123;-69
2023/09/21 12:28:28;;;;;;;2.88;1.30;;;;;;;;;;5064109;28;25156;-71
2023/09/21 12:30:54;;;;;;;1.55;1.33;;;;;;;;;;5064989;28;25068;-71
2023/09/21 12:33:21;;;;;;;1.48;1.20;;;;;;;;;;5068138;28;25056;-71
2023/09/21 12:35:47;;;;;;;2.28;1.55;;;;;;;;;;5073794;28;25061;-72
2023/09/21 12:38:13;;;;;;;1.65;1.55;;;;;;;;;;5081405;28;25043;-69
2023/09/21 12:40:40;;;;;;;1.60;1.50;;;;;;;;;;5080992;28;25071;-72
2023/09/21 12:43:08;;;;;;;1.45;1.35;;;;;;;;;;5083265;28;25091;-70
2023/09/21 12:45:34;;;;;;;2.17;1.70;;;;;;;;;;5085237;28;25074;-70
2023/09/21 12:48:01;;;;;;;3.97;2.35;;;;;;;;;;5086335;28;25049;-70
2023/09/21 12:50:28;;;;;;;5.43;2.53;;;;;;;;;;5067670;28;25117;-73
2023/09/21 12:52:57;;;;;;;2.60;2.15;;;;;;;;;;5066584;28;25145;-70
2023/09/21 12:55:23;;;;;;;3.42;2.45;;;;;;;;;;5036208;28;25068;-71
2023/09/21 12:57:50;;;;;;;2.70;2.30;;;;;;;;;;5063964;28;25050;-71
2023/09/21 13:00:23;;;;;;;5.85;2.80;;;;;;;;;;5061896;28;25114;-71
2023/09/21 13:02:57;;;;;;;2.42;2.22;;;;;;;;;;5066045;28;25070;-70
2023/09/21 13:05:23;;;;;;;3.15;2.75;;;;;;;;;;5044526;28;25071;-72
2023/09/21 13:07:51;;;;;;;3.33;2.40;;;;;;;;;;5042693;28;25065;-71
2023/09/21 13:10:20;;;;;;;2.40;2.20;;;;;;;;;;5065412;28;25162;-71
2023/09/21 13:12:47;;;;;;;6.13;3.45;;;;;;;;;;5065821;28;25076;-69
2023/09/21 13:15:14;;;;;;;3.90;3.28;;;;;;;;;;5046151;28;25066;-68
2023/09/21 13:17:40;;;;;;;3.58;3.00;;;;;;;;;;5042690;28;25099;-72
2023/09/21 13:20:07;;;;;;;3.72;3.10;;;;;;;;;;5062789;28;25076;-69
2023/09/21 13:22:37;;;;;;;4.75;2.97;;;;;;;;;;5041431;28;25076;-71
2023/09/21 13:25:03;;;;;;;6.18;3.45;;;;;;;;;;5056099;28;25053;-71
2023/09/21 13:27:29;;;;;;;5.53;3.90;;;;;;;;;;5062395;28;25132;-72
2023/09/21 13:29:58;;;;;;;5.35;3.80;;;;;;;;;;5056042;28;25073;-68
2023/09/21 13:32:25;;;;;;;7.50;4.45;;;;;;;;;;5053568;28;25069;-69
2023/09/21 13:34:51;;;;;;;8.50;5.88;;;;;;;;;;5060616;28;25192;-71
2023/09/21 13:37:19;;;;;;;8.15;7.30;;;;;;;;;;5062930;28;25078;-69
2023/09/21 13:39:44;;;;;;;7.70;6.28;;;;;;;;;;5057092;28;25060;-71
2023/09/21 13:42:11;;;;;;;10.25;7.72;;;;;;;;;;5038651;28;25059;-71
2023/09/21 13:44:37;;;;;;;8.43;7.05;;;;;;;;;;5058982;28;25082;-72
2023/09/21 13:47:04;;;;;;;9.80;7.28;;;;;;;;;;5061056;28;25140;-72
2023/09/21 13:49:33;;;;;;;9.35;8.20;;;;;;;;;;5059594;28;25055;-70
2023/09/21 13:51:59;;;;;;;8.77;6.07;;;;;;;;;;5043212;28;25093;-71
2023/09/21 13:54:26;;;;;;;7.72;6.60;;;;;;;;;;5045114;28;25071;-70
2023/09/21 13:56:52;;;;;;;8.85;5.95;;;;;;;;;;5058341;28;25054;-72
2023/09/21 13:59:19;;;;;;;6.85;5.05;;;;;;;;;;5061372;28;25049;-73
2023/09/21 14:01:45;;;;;;;5.88;3.83;;;;;;;;;;5058925;28;25067;-73
2023/09/21 14:04:11;;;;;;;4.93;4.22;;;;;;;;;;5059231;28;25078;-74
2023/09/21 14:06:37;;;;;;;4.60;3.65;;;;;;;;;;5040633;28;25068;-72
2023/09/21 14:09:04;;;;;;;4.05;3.35;;;;;;;;;;5062840;28;25061;-69
2023/09/21 14:11:30;;;;;;;6.07;3.15;;;;;;;;;;5060830;28;25074;-70
2023/09/21 14:13:56;;;;;;;3.22;2.92;;;;;;;;;;5043358;28;25078;-73
2023/09/21 14:16:22;;;;;;;5.00;3.10;;;;;;;;;;5062220;28;25103;-74
2023/09/21 14:18:48;;;;;;;7.40;2.70;;;;;;;;;;5055194;28;25090;-71
2023/09/21 14:21:14;;;;;;;4.88;3.33;;;;;;;;;;5053530;28;25166;-70
2023/09/21 14:23:41;;;;;;;3.83;3.13;;;;;;;;;;5050368;28;25108;-70
2023/09/21 14:26:07;;;;;;;5.18;3.38;;;;;;;;;;5055977;28;25161;-71
2023/09/21 14:28:35;;;;;;;4.53;3.03;;;;;;;;;;5052386;28;25068;-71
2023/09/21 14:31:01;;;;;;;5.28;3.20;;;;;;;;;;5055786;28;25086;-71
2023/09/21 14:33:28;;;;;;;4.93;2.58;;;;;;;;;;5059988;28;25182;-70
2023/09/21 14:35:54;;;;;;;3.50;2.63;;;;;;;;;;5062523;28;25081;-70
2023/09/21 14:38:20;;;;;;;4.65;2.53;;;;;;;;;;5062089;28;25154;-72
2023/09/21 14:40:46;;;;;;;4.97;2.58;;;;;;;;;;5061809;28;25165;-71
2023/09/21 14:43:12;;;;;;;3.28;1.92;;;;;;;;;;5059948;28;25061;-70
2023/09/21 14:45:38;;;;;;;2.95;2.05;;;;;;;;;;5066066;28;25060;-71